sensor_id;sensor_type;location;lat;lon;timestamp;P1;durP1;ratioP1;P2;durP2;ratioP2
20861;SDS011;10591;52.532;13.348;2023-03-22T00:00:52;25.62;;;18.82;;
20861;SDS011;10591;52.532;13.348;2023-03-22T00:03:24;28.02;;;20.52;;
20861;SDS011;10591;52.532;13.348;2023-03-22T00:05:56;26.93;;;19.70;;
20861;SDS011;10591;52.532;13.348;2023-03-22T00:08:26;27.55;;;19.85;;
20861;SDS011;10591;52.532;13.348;2023-03-22T00:10:57;25.10;;;18.48;;
20861;SDS011;10591;52.532;13.348;2023-03-22T00:13:30;26.10;;;18.20;;
20861;SDS011;10591;52.532;13.348;2023-03-22T00:16:04;28.47;;;19.40;;
20861;SDS011;10591;52.532;13.348;2023-03-22T00:18:35;24.50;;;18.42;;
20861;SDS011;10591;52.532;13.348;2023-03-22T00:21:09;22.98;;;18.10;;
20861;SDS011;10591;52.532;13.348;2023-03-22T00:23:41;24.10;;;17.98;;
20861;SDS011;10591;52.532;13.348;2023-03-22T00:26:13;23.30;;;18.32;;
20861;SDS011;10591;52.532;13.348;2023-03-22T00:28:44;24.82;;;18.45;;
20861;SDS011;10591;52.532;13.348;2023-03-22T00:31:14;26.12;;;19.15;;
20861;SDS011;10591;52.532;13.348;2023-03-22T00:33:45;23.67;;;17.90;;
20861;SDS011;10591;52.532;13.348;2023-03-22T00:36:16;27.40;;;19.05;;
20861;SDS011;10591;52.532;13.348;2023-03-22T00:38:49;26.57;;;19.05;;
20861;SDS011;10591;52.532;13.348;2023-03-22T00:41:21;25.48;;;19.25;;
20861;SDS011;10591;52.532;13.348;2023-03-22T00:43:53;25.70;;;18.48;;
20861;SDS011;10591;52.532;13.348;2023-03-22T00:46:25;27.85;;;20.30;;
20861;SDS011;10591;52.532;13.348;2023-03-22T00:48:55;27.70;;;19.90;;
20861;SDS011;10591;52.532;13.348;2023-03-22T00:51:28;30.10;;;19.65;;
20861;SDS011;10591;52.532;13.348;2023-03-22T00:53:58;32.25;;;19.98;;
20861;SDS011;10591;52.532;13.348;2023-03-22T00:56:29;27.98;;;19.55;;
20861;SDS011;10591;52.532;13.348;2023-03-22T00:59:03;26.60;;;19.00;;
20861;SDS011;10591;52.532;13.348;2023-03-22T01:01:34;25.32;;;19.00;;
20861;SDS011;10591;52.532;13.348;2023-03-22T01:04:05;25.43;;;19.20;;
20861;SDS011;10591;52.532;13.348;2023-03-22T01:06:36;30.40;;;20.17;;
20861;SDS011;10591;52.532;13.348;2023-03-22T01:09:06;26.02;;;19.60;;
20861;SDS011;10591;52.532;13.348;2023-03-22T01:11:41;28.62;;;19.37;;
20861;SDS011;10591;52.532;13.348;2023-03-22T01:14:14;29.10;;;19.75;;
20861;SDS011;10591;52.532;13.348;2023-03-22T01:16:47;24.27;;;19.00;;
20861;SDS011;10591;52.532;13.348;2023-03-22T01:19:17;30.57;;;19.37;;
20861;SDS011;10591;52.532;13.348;2023-03-22T01:21:49;27.37;;;19.15;;
20861;SDS011;10591;52.532;13.348;2023-03-22T01:24:20;25.85;;;18.42;;
20861;SDS011;10591;52.532;13.348;2023-03-22T01:26:51;29.10;;;19.50;;
20861;SDS011;10591;52.532;13.348;2023-03-22T01:29:21;26.33;;;19.42;;
20861;SDS011;10591;52.532;13.348;2023-03-22T01:31:53;27.50;;;19.73;;
20861;SDS011;10591;52.532;13.348;2023-03-22T01:34:24;27.32;;;19.40;;
20861;SDS011;10591;52.532;13.348;2023-03-22T01:36:56;25.37;;;19.57;;
20861;SDS011;10591;52.532;13.348;2023-03-22T01:39:28;27.07;;;19.35;;
20861;SDS011;10591;52.532;13.348;2023-03-22T01:42:00;28.62;;;19.57;;
20861;SDS011;10591;52.532;13.348;2023-03-22T01:44:33;24.85;;;18.62;;
20861;SDS011;10591;52.532;13.348;2023-03-22T01:47:07;24.82;;;18.37;;
20861;SDS011;10591;52.532;13.348;2023-03-22T01:49:39;27.00;;;18.37;;
20861;SDS011;10591;52.532;13.348;2023-03-22T01:52:11;28.30;;;21.12;;
20861;SDS011;10591;52.532;13.348;2023-03-22T01:54:44;24.77;;;18.62;;
20861;SDS011;10591;52.532;13.348;2023-03-22T01:57:17;27.20;;;19.62;;
20861;SDS011;10591;52.532;13.348;2023-03-22T01:59:47;27.82;;;20.20;;
20861;SDS011;10591;52.532;13.348;2023-03-22T02:02:19;30.10;;;19.27;;
20861;SDS011;10591;52.532;13.348;2023-03-22T02:04:49;24.25;;;18.90;;
20861;SDS011;10591;52.532;13.348;2023-03-22T02:07:22;26.93;;;19.65;;
20861;SDS011;10591;52.532;13.348;2023-03-22T02:09:56;24.92;;;18.15;;
20861;SDS011;10591;52.532;13.348;2023-03-22T02:20:46;24.55;;;18.62;;
20861;SDS011;10591;52.532;13.348;2023-03-22T02:26:22;25.27;;;19.07;;
20861;SDS011;10591;52.532;13.348;2023-03-22T02:40:51;24.90;;;19.00;;
20861;SDS011;10591;52.532;13.348;2023-03-22T02:43:39;27.22;;;19.05;;
20861;SDS011;10591;52.532;13.348;2023-03-22T02:46:21;25.75;;;19.05;;
20861;SDS011;10591;52.532;13.348;2023-03-22T02:48:56;25.80;;;18.82;;
20861;SDS011;10591;52.532;13.348;2023-03-22T02:52:02;25.63;;;19.30;;
20861;SDS011;10591;52.532;13.348;2023-03-22T02:54:29;23.30;;;17.67;;
20861;SDS011;10591;52.532;13.348;2023-03-22T02:56:58;26.65;;;18.65;;
20861;SDS011;10591;52.532;13.348;2023-03-22T02:59:30;24.02;;;18.00;;
20861;SDS011;10591;52.532;13.348;2023-03-22T03:02:04;22.00;;;17.77;;
20861;SDS011;10591;52.532;13.348;2023-03-22T03:04:44;24.43;;;18.15;;
20861;SDS011;10591;52.532;13.348;2023-03-22T03:07:14;24.00;;;18.05;;
20861;SDS011;10591;52.532;13.348;2023-03-22T03:09:48;22.85;;;17.52;;
20861;SDS011;10591;52.532;13.348;2023-03-22T03:12:22;23.35;;;18.02;;
20861;SDS011;10591;52.532;13.348;2023-03-22T03:14:54;25.30;;;17.90;;
20861;SDS011;10591;52.532;13.348;2023-03-22T03:20:09;22.93;;;17.82;;
20861;SDS011;10591;52.532;13.348;2023-03-22T03:22:47;25.82;;;18.23;;
20861;SDS011;10591;52.532;13.348;2023-03-22T03:28:17;23.57;;;17.42;;
20861;SDS011;10591;52.532;13.348;2023-03-22T03:36:33;24.43;;;17.67;;
20861;SDS011;10591;52.532;13.348;2023-03-22T03:39:06;24.40;;;17.15;;
20861;SDS011;10591;52.532;13.348;2023-03-22T03:41:41;22.07;;;16.75;;
20861;SDS011;10591;52.532;13.348;2023-03-22T03:44:15;23.98;;;16.70;;
20861;SDS011;10591;52.532;13.348;2023-03-22T03:46:47;21.40;;;17.10;;
20861;SDS011;10591;52.532;13.348;2023-03-22T03:49:19;22.13;;;16.80;;
20861;SDS011;10591;52.532;13.348;2023-03-22T03:51:52;23.30;;;17.55;;
20861;SDS011;10591;52.532;13.348;2023-03-22T03:54:24;22.50;;;17.67;;
20861;SDS011;10591;52.532;13.348;2023-03-22T03:56:54;21.70;;;16.25;;
20861;SDS011;10591;52.532;13.348;2023-03-22T03:59:31;23.60;;;17.57;;
20861;SDS011;10591;52.532;13.348;2023-03-22T04:01:57;23.33;;;17.80;;
20861;SDS011;10591;52.532;13.348;2023-03-22T04:04:28;21.37;;;16.65;;
20861;SDS011;10591;52.532;13.348;2023-03-22T04:06:59;21.42;;;16.57;;
20861;SDS011;10591;52.532;13.348;2023-03-22T04:09:33;22.93;;;16.67;;
20861;SDS011;10591;52.532;13.348;2023-03-22T04:12:05;20.60;;;17.17;;
20861;SDS011;10591;52.532;13.348;2023-03-22T04:14:37;19.05;;;15.80;;
20861;SDS011;10591;52.532;13.348;2023-03-22T04:17:11;20.45;;;16.07;;
20861;SDS011;10591;52.532;13.348;2023-03-22T04:19:46;19.27;;;15.90;;
20861;SDS011;10591;52.532;13.348;2023-03-22T04:22:17;22.73;;;16.77;;
20861;SDS011;10591;52.532;13.348;2023-03-22T04:24:47;20.05;;;15.88;;
20861;SDS011;10591;52.532;13.348;2023-03-22T04:27:19;20.30;;;15.40;;
20861;SDS011;10591;52.532;13.348;2023-03-22T04:29:50;21.20;;;16.30;;
20861;SDS011;10591;52.532;13.348;2023-03-22T04:32:22;18.40;;;15.60;;
20861;SDS011;10591;52.532;13.348;2023-03-22T04:34:53;22.10;;;15.80;;
20861;SDS011;10591;52.532;13.348;2023-03-22T04:37:24;23.02;;;16.32;;
20861;SDS011;10591;52.532;13.348;2023-03-22T04:39:55;18.75;;;15.78;;
20861;SDS011;10591;52.532;13.348;2023-03-22T04:42:26;19.42;;;14.63;;
20861;SDS011;10591;52.532;13.348;2023-03-22T04:44:58;19.20;;;15.18;;
20861;SDS011;10591;52.532;13.348;2023-03-22T04:47:31;19.20;;;14.80;;
20861;SDS011;10591;52.532;13.348;2023-03-22T04:50:02;18.95;;;15.38;;
20861;SDS011;10591;52.532;13.348;2023-03-22T04:52:35;18.57;;;14.75;;
20861;SDS011;10591;52.532;13.348;2023-03-22T04:55:06;19.42;;;14.83;;
20861;SDS011;10591;52.532;13.348;2023-03-22T04:57:37;18.90;;;14.75;;
20861;SDS011;10591;52.532;13.348;2023-03-22T05:00:08;19.75;;;15.25;;
20861;SDS011;10591;52.532;13.348;2023-03-22T05:02:39;21.02;;;15.10;;
20861;SDS011;10591;52.532;13.348;2023-03-22T05:05:10;21.50;;;15.60;;
20861;SDS011;10591;52.532;13.348;2023-03-22T05:07:43;19.40;;;14.35;;
20861;SDS011;10591;52.532;13.348;2023-03-22T05:10:14;19.77;;;15.30;;
20861;SDS011;10591;52.532;13.348;2023-03-22T05:12:45;20.57;;;14.83;;
20861;SDS011;10591;52.532;13.348;2023-03-22T05:15:17;18.98;;;15.03;;
20861;SDS011;10591;52.532;13.348;2023-03-22T05:17:48;19.42;;;14.93;;
20861;SDS011;10591;52.532;13.348;2023-03-22T05:20:18;18.25;;;14.68;;
20861;SDS011;10591;52.532;13.348;2023-03-22T05:22:50;21.10;;;15.30;;
20861;SDS011;10591;52.532;13.348;2023-03-22T05:25:23;20.08;;;15.58;;
20861;SDS011;10591;52.532;13.348;2023-03-22T05:27:54;20.75;;;15.60;;
20861;SDS011;10591;52.532;13.348;2023-03-22T05:30:27;20.48;;;16.17;;
20861;SDS011;10591;52.532;13.348;2023-03-22T05:32:58;21.37;;;15.58;;
20861;SDS011;10591;52.532;13.348;2023-03-22T05:35:31;20.97;;;15.83;;
20861;SDS011;10591;52.532;13.348;2023-03-22T05:38:03;19.65;;;14.87;;
20861;SDS011;10591;52.532;13.348;2023-03-22T05:40:34;20.82;;;15.88;;
20861;SDS011;10591;52.532;13.348;2023-03-22T05:43:07;19.10;;;14.20;;
20861;SDS011;10591;52.532;13.348;2023-03-22T05:45:38;21.37;;;14.98;;
20861;SDS011;10591;52.532;13.348;2023-03-22T05:48:10;19.37;;;14.33;;
20861;SDS011;10591;52.532;13.348;2023-03-22T05:50:41;18.50;;;14.50;;
20861;SDS011;10591;52.532;13.348;2023-03-22T05:53:11;17.07;;;14.35;;
20861;SDS011;10591;52.532;13.348;2023-03-22T05:55:42;17.65;;;14.25;;
20861;SDS011;10591;52.532;13.348;2023-03-22T05:58:13;19.77;;;13.93;;
20861;SDS011;10591;52.532;13.348;2023-03-22T06:00:46;18.00;;;13.85;;
20861;SDS011;10591;52.532;13.348;2023-03-22T06:03:20;19.15;;;14.75;;
20861;SDS011;10591;52.532;13.348;2023-03-22T06:05:52;21.15;;;14.93;;
20861;SDS011;10591;52.532;13.348;2023-03-22T06:08:23;16.82;;;13.60;;
20861;SDS011;10591;52.532;13.348;2023-03-22T06:10:54;17.27;;;13.50;;
20861;SDS011;10591;52.532;13.348;2023-03-22T06:13:27;19.92;;;14.47;;
20861;SDS011;10591;52.532;13.348;2023-03-22T06:15:58;17.40;;;13.85;;
20861;SDS011;10591;52.532;13.348;2023-03-22T06:18:31;18.80;;;13.65;;
20861;SDS011;10591;52.532;13.348;2023-03-22T06:21:04;16.32;;;13.62;;
20861;SDS011;10591;52.532;13.348;2023-03-22T06:23:37;16.90;;;13.90;;
20861;SDS011;10591;52.532;13.348;2023-03-22T06:26:12;18.05;;;13.95;;
20861;SDS011;10591;52.532;13.348;2023-03-22T06:28:43;18.15;;;13.15;;
20861;SDS011;10591;52.532;13.348;2023-03-22T06:31:15;18.67;;;13.30;;
20861;SDS011;10591;52.532;13.348;2023-03-22T06:33:46;17.85;;;13.58;;
20861;SDS011;10591;52.532;13.348;2023-03-22T06:36:16;20.72;;;14.45;;
20861;SDS011;10591;52.532;13.348;2023-03-22T06:38:47;19.50;;;13.83;;
20861;SDS011;10591;52.532;13.348;2023-03-22T06:41:18;17.70;;;12.95;;
20861;SDS011;10591;52.532;13.348;2023-03-22T06:43:50;18.82;;;13.38;;
20861;SDS011;10591;52.532;13.348;2023-03-22T06:46:20;16.62;;;13.85;;
20861;SDS011;10591;52.532;13.348;2023-03-22T06:48:51;18.98;;;13.90;;
20861;SDS011;10591;52.532;13.348;2023-03-22T06:51:22;16.87;;;13.48;;
20861;SDS011;10591;52.532;13.348;2023-03-22T06:53:53;18.23;;;13.72;;
20861;SDS011;10591;52.532;13.348;2023-03-22T06:56:24;16.97;;;13.22;;
20861;SDS011;10591;52.532;13.348;2023-03-22T06:58:57;18.75;;;13.50;;
20861;SDS011;10591;52.532;13.348;2023-03-22T07:01:28;20.70;;;14.15;;
20861;SDS011;10591;52.532;13.348;2023-03-22T07:03:58;18.32;;;13.25;;
20861;SDS011;10591;52.532;13.348;2023-03-22T07:06:29;19.07;;;15.13;;
20861;SDS011;10591;52.532;13.348;2023-03-22T07:09:00;20.80;;;14.53;;
20861;SDS011;10591;52.532;13.348;2023-03-22T07:11:31;16.07;;;13.13;;
20861;SDS011;10591;52.532;13.348;2023-03-22T07:14:04;18.87;;;13.18;;
20861;SDS011;10591;52.532;13.348;2023-03-22T07:16:35;15.70;;;13.03;;
20861;SDS011;10591;52.532;13.348;2023-03-22T07:19:07;16.10;;;13.15;;
20861;SDS011;10591;52.532;13.348;2023-03-22T07:21:39;15.30;;;12.47;;
20861;SDS011;10591;52.532;13.348;2023-03-22T07:24:12;18.32;;;13.30;;
20861;SDS011;10591;52.532;13.348;2023-03-22T07:26:43;16.07;;;12.95;;
20861;SDS011;10591;52.532;13.348;2023-03-22T07:29:14;18.75;;;14.70;;
20861;SDS011;10591;52.532;13.348;2023-03-22T07:31:44;18.65;;;13.20;;
20861;SDS011;10591;52.532;13.348;2023-03-22T07:34:15;17.75;;;13.22;;
20861;SDS011;10591;52.532;13.348;2023-03-22T07:36:47;17.87;;;13.50;;
20861;SDS011;10591;52.532;13.348;2023-03-22T07:39:19;16.07;;;12.58;;
20861;SDS011;10591;52.532;13.348;2023-03-22T07:41:51;14.20;;;12.43;;
20861;SDS011;10591;52.532;13.348;2023-03-22T07:44:22;16.70;;;12.47;;
20861;SDS011;10591;52.532;13.348;2023-03-22T07:46:55;16.37;;;13.00;;
20861;SDS011;10591;52.532;13.348;2023-03-22T07:49:27;18.10;;;12.93;;
20861;SDS011;10591;52.532;13.348;2023-03-22T07:51:58;15.63;;;12.55;;
20861;SDS011;10591;52.532;13.348;2023-03-22T07:54:28;17.70;;;13.05;;
20861;SDS011;10591;52.532;13.348;2023-03-22T07:57:01;15.80;;;11.95;;
20861;SDS011;10591;52.532;13.348;2023-03-22T07:59:31;16.50;;;12.20;;
20861;SDS011;10591;52.532;13.348;2023-03-22T08:02:02;15.23;;;11.73;;
20861;SDS011;10591;52.532;13.348;2023-03-22T08:04:32;16.05;;;12.93;;
20861;SDS011;10591;52.532;13.348;2023-03-22T08:07:03;14.10;;;11.90;;
20861;SDS011;10591;52.532;13.348;2023-03-22T08:09:35;14.30;;;12.13;;
20861;SDS011;10591;52.532;13.348;2023-03-22T08:12:07;14.85;;;11.88;;
20861;SDS011;10591;52.532;13.348;2023-03-22T08:14:37;13.28;;;11.33;;
20861;SDS011;10591;52.532;13.348;2023-03-22T08:17:08;15.85;;;11.35;;
20861;SDS011;10591;52.532;13.348;2023-03-22T08:19:39;14.20;;;12.37;;
20861;SDS011;10591;52.532;13.348;2023-03-22T08:22:09;14.73;;;11.48;;
20861;SDS011;10591;52.532;13.348;2023-03-22T08:24:40;13.58;;;12.13;;
20861;SDS011;10591;52.532;13.348;2023-03-22T08:27:10;14.03;;;11.20;;
20861;SDS011;10591;52.532;13.348;2023-03-22T08:29:41;13.05;;;11.12;;
20861;SDS011;10591;52.532;13.348;2023-03-22T08:32:12;15.83;;;11.88;;
20861;SDS011;10591;52.532;13.348;2023-03-22T08:34:44;13.60;;;11.83;;
20861;SDS011;10591;52.532;13.348;2023-03-22T08:37:17;13.80;;;11.83;;
20861;SDS011;10591;52.532;13.348;2023-03-22T08:39:48;14.98;;;11.40;;
20861;SDS011;10591;52.532;13.348;2023-03-22T08:42:21;13.20;;;11.43;;
20861;SDS011;10591;52.532;13.348;2023-03-22T08:44:51;14.80;;;12.00;;
20861;SDS011;10591;52.532;13.348;2023-03-22T08:47:22;14.47;;;11.57;;
20861;SDS011;10591;52.532;13.348;2023-03-22T08:49:55;15.38;;;11.18;;
20861;SDS011;10591;52.532;13.348;2023-03-22T08:52:25;13.10;;;10.68;;
20861;SDS011;10591;52.532;13.348;2023-03-22T08:54:57;13.22;;;11.70;;
20861;SDS011;10591;52.532;13.348;2023-03-22T08:57:28;13.70;;;11.22;;
20861;SDS011;10591;52.532;13.348;2023-03-22T09:00:00;13.15;;;11.75;;
20861;SDS011;10591;52.532;13.348;2023-03-22T09:02:34;12.68;;;10.68;;
20861;SDS011;10591;52.532;13.348;2023-03-22T09:05:05;12.75;;;11.25;;
20861;SDS011;10591;52.532;13.348;2023-03-22T09:07:35;14.03;;;11.40;;
20861;SDS011;10591;52.532;13.348;2023-03-22T09:10:07;15.23;;;12.43;;
20861;SDS011;10591;52.532;13.348;2023-03-22T09:12:38;13.83;;;10.25;;
20861;SDS011;10591;52.532;13.348;2023-03-22T09:15:09;12.63;;;10.60;;
20861;SDS011;10591;52.532;13.348;2023-03-22T09:17:39;14.28;;;10.25;;
20861;SDS011;10591;52.532;13.348;2023-03-22T09:20:10;15.32;;;10.80;;
20861;SDS011;10591;52.532;13.348;2023-03-22T09:22:46;15.38;;;11.10;;
20861;SDS011;10591;52.532;13.348;2023-03-22T09:25:16;10.93;;;9.73;;
20861;SDS011;10591;52.532;13.348;2023-03-22T09:27:49;10.68;;;9.58;;
20861;SDS011;10591;52.532;13.348;2023-03-22T09:30:19;12.65;;;9.95;;
20861;SDS011;10591;52.532;13.348;2023-03-22T09:32:49;13.22;;;10.25;;
20861;SDS011;10591;52.532;13.348;2023-03-22T09:35:20;12.70;;;10.65;;
20861;SDS011;10591;52.532;13.348;2023-03-22T09:37:51;11.38;;;10.00;;
20861;SDS011;10591;52.532;13.348;2023-03-22T09:40:27;11.78;;;10.15;;
20861;SDS011;10591;52.532;13.348;2023-03-22T09:42:56;13.43;;;10.43;;
20861;SDS011;10591;52.532;13.348;2023-03-22T09:45:31;11.73;;;10.30;;
20861;SDS011;10591;52.532;13.348;2023-03-22T09:48:05;12.65;;;9.90;;
20861;SDS011;10591;52.532;13.348;2023-03-22T09:50:43;11.48;;;10.38;;
20861;SDS011;10591;52.532;13.348;2023-03-22T09:53:17;12.95;;;10.40;;
20861;SDS011;10591;52.532;13.348;2023-03-22T09:58:46;13.03;;;9.95;;
20861;SDS011;10591;52.532;13.348;2023-03-22T10:12:43;13.30;;;10.18;;
20861;SDS011;10591;52.532;13.348;2023-03-22T10:15:17;12.10;;;9.28;;
20861;SDS011;10591;52.532;13.348;2023-03-22T10:17:51;10.85;;;9.40;;
20861;SDS011;10591;52.532;13.348;2023-03-22T10:22:57;9.65;;;8.45;;
20861;SDS011;10591;52.532;13.348;2023-03-22T10:25:33;10.93;;;9.20;;
20861;SDS011;10591;52.532;13.348;2023-03-22T10:28:15;13.80;;;9.25;;
20861;SDS011;10591;52.532;13.348;2023-03-22T10:30:49;9.70;;;8.20;;
20861;SDS011;10591;52.532;13.348;2023-03-22T10:33:36;11.03;;;8.20;;
20861;SDS011;10591;52.532;13.348;2023-03-22T10:36:10;8.33;;;7.17;;
20861;SDS011;10591;52.532;13.348;2023-03-22T10:38:48;9.35;;;7.90;;
20861;SDS011;10591;52.532;13.348;2023-03-22T10:41:22;8.73;;;7.83;;
20861;SDS011;10591;52.532;13.348;2023-03-22T10:43:55;8.88;;;7.70;;
20861;SDS011;10591;52.532;13.348;2023-03-22T10:46:32;8.58;;;7.67;;
20861;SDS011;10591;52.532;13.348;2023-03-22T10:49:05;9.15;;;7.50;;
20861;SDS011;10591;52.532;13.348;2023-03-22T10:51:48;12.10;;;8.43;;
20861;SDS011;10591;52.532;13.348;2023-03-22T10:54:22;11.45;;;8.23;;
20861;SDS011;10591;52.532;13.348;2023-03-22T10:56:54;8.85;;;7.55;;
20861;SDS011;10591;52.532;13.348;2023-03-22T11:02:23;8.10;;;7.05;;
20861;SDS011;10591;52.532;13.348;2023-03-22T11:04:56;8.38;;;6.75;;
20861;SDS011;10591;52.532;13.348;2023-03-22T11:07:30;8.93;;;7.15;;
20861;SDS011;10591;52.532;13.348;2023-03-22T11:10:10;7.35;;;6.10;;
20861;SDS011;10591;52.532;13.348;2023-03-22T11:12:47;8.63;;;5.90;;
20861;SDS011;10591;52.532;13.348;2023-03-22T11:15:24;6.97;;;5.83;;
20861;SDS011;10591;52.532;13.348;2023-03-22T11:18:03;7.50;;;6.75;;
20861;SDS011;10591;52.532;13.348;2023-03-22T11:20:35;8.13;;;6.08;;
20861;SDS011;10591;52.532;13.348;2023-03-22T11:23:11;6.62;;;5.95;;
20861;SDS011;10591;52.532;13.348;2023-03-22T11:25:46;8.40;;;6.40;;
20861;SDS011;10591;52.532;13.348;2023-03-22T11:28:20;8.00;;;6.53;;
20861;SDS011;10591;52.532;13.348;2023-03-22T11:31:07;6.58;;;5.62;;
20861;SDS011;10591;52.532;13.348;2023-03-22T11:34:16;8.00;;;5.05;;
20861;SDS011;10591;52.532;13.348;2023-03-22T11:36:27;5.50;;;4.53;;
20861;SDS011;10591;52.532;13.348;2023-03-22T11:38:59;6.50;;;5.00;;
20861;SDS011;10591;52.532;13.348;2023-03-22T11:41:36;6.53;;;5.28;;
20861;SDS011;10591;52.532;13.348;2023-03-22T11:44:14;7.10;;;5.47;;
20861;SDS011;10591;52.532;13.348;2023-03-22T11:46:56;7.08;;;5.30;;
20861;SDS011;10591;52.532;13.348;2023-03-22T11:49:36;5.75;;;4.67;;
20861;SDS011;10591;52.532;13.348;2023-03-22T11:52:06;5.65;;;4.58;;
20861;SDS011;10591;52.532;13.348;2023-03-22T11:54:39;6.22;;;4.85;;
20861;SDS011;10591;52.532;13.348;2023-03-22T11:57:14;5.33;;;4.83;;
20861;SDS011;10591;52.532;13.348;2023-03-22T12:02:26;5.55;;;4.72;;
20861;SDS011;10591;52.532;13.348;2023-03-22T12:05:05;6.47;;;4.40;;
20861;SDS011;10591;52.532;13.348;2023-03-22T12:07:39;5.25;;;4.75;;
20861;SDS011;10591;52.532;13.348;2023-03-22T12:10:16;5.08;;;4.58;;
20861;SDS011;10591;52.532;13.348;2023-03-22T12:13:02;6.95;;;4.67;;
20861;SDS011;10591;52.532;13.348;2023-03-22T12:15:37;5.97;;;4.70;;
20861;SDS011;10591;52.532;13.348;2023-03-22T12:20:52;7.30;;;5.28;;
20861;SDS011;10591;52.532;13.348;2023-03-22T12:23:29;5.30;;;4.80;;
20861;SDS011;10591;52.532;13.348;2023-03-22T12:31:30;5.65;;;4.78;;
20861;SDS011;10591;52.532;13.348;2023-03-22T12:37:04;5.62;;;4.67;;
20861;SDS011;10591;52.532;13.348;2023-03-22T12:39:38;6.55;;;4.55;;
20861;SDS011;10591;52.532;13.348;2023-03-22T12:44:49;5.55;;;4.53;;
20861;SDS011;10591;52.532;13.348;2023-03-22T12:47:30;5.75;;;4.92;;
20861;SDS011;10591;52.532;13.348;2023-03-22T12:50:04;6.08;;;4.58;;
20861;SDS011;10591;52.532;13.348;2023-03-22T12:55:17;4.75;;;4.03;;
20861;SDS011;10591;52.532;13.348;2023-03-22T12:57:56;5.45;;;4.15;;
20861;SDS011;10591;52.532;13.348;2023-03-22T13:05:58;5.47;;;4.17;;
20861;SDS011;10591;52.532;13.348;2023-03-22T13:11:40;9.48;;;4.05;;
20861;SDS011;10591;52.532;13.348;2023-03-22T13:25:27;5.30;;;4.20;;
20861;SDS011;10591;52.532;13.348;2023-03-22T13:28:24;4.62;;;3.90;;
20861;SDS011;10591;52.532;13.348;2023-03-22T13:30:59;4.20;;;3.00;;
20861;SDS011;10591;52.532;13.348;2023-03-22T13:33:35;4.97;;;3.20;;
20861;SDS011;10591;52.532;13.348;2023-03-22T13:36:20;4.90;;;3.27;;
20861;SDS011;10591;52.532;13.348;2023-03-22T13:38:56;6.20;;;3.02;;
20861;SDS011;10591;52.532;13.348;2023-03-22T13:41:31;5.20;;;3.20;;
20861;SDS011;10591;52.532;13.348;2023-03-22T13:46:59;5.00;;;2.83;;
20861;SDS011;10591;52.532;13.348;2023-03-22T13:49:41;5.97;;;3.00;;
20861;SDS011;10591;52.532;13.348;2023-03-22T13:52:25;4.05;;;2.90;;
20861;SDS011;10591;52.532;13.348;2023-03-22T13:54:55;5.65;;;3.30;;
20861;SDS011;10591;52.532;13.348;2023-03-22T13:57:43;6.05;;;3.42;;
20861;SDS011;10591;52.532;13.348;2023-03-22T14:00:18;3.77;;;2.92;;
20861;SDS011;10591;52.532;13.348;2023-03-22T14:02:52;6.10;;;3.10;;
20861;SDS011;10591;52.532;13.348;2023-03-22T14:05:25;4.62;;;3.20;;
20861;SDS011;10591;52.532;13.348;2023-03-22T14:08:00;4.05;;;3.10;;
20861;SDS011;10591;52.532;13.348;2023-03-22T14:10:45;3.70;;;3.00;;
20861;SDS011;10591;52.532;13.348;2023-03-22T14:16:10;4.05;;;2.80;;
20861;SDS011;10591;52.532;13.348;2023-03-22T14:18:49;3.80;;;3.10;;
20861;SDS011;10591;52.532;13.348;2023-03-22T14:21:22;4.15;;;2.70;;
20861;SDS011;10591;52.532;13.348;2023-03-22T14:23:55;3.62;;;3.00;;
20861;SDS011;10591;52.532;13.348;2023-03-22T14:26:39;6.78;;;3.00;;
20861;SDS011;10591;52.532;13.348;2023-03-22T14:29:15;3.42;;;2.62;;
20861;SDS011;10591;52.532;13.348;2023-03-22T14:31:53;3.20;;;2.90;;
20861;SDS011;10591;52.532;13.348;2023-03-22T14:34:24;3.10;;;2.80;;
20861;SDS011;10591;52.532;13.348;2023-03-22T14:36:57;3.87;;;3.05;;
20861;SDS011;10591;52.532;13.348;2023-03-22T14:39:33;3.98;;;3.00;;
20861;SDS011;10591;52.532;13.348;2023-03-22T14:42:16;3.70;;;2.37;;
20861;SDS011;10591;52.532;13.348;2023-03-22T14:44:53;3.75;;;2.65;;
20861;SDS011;10591;52.532;13.348;2023-03-22T14:47:26;3.35;;;2.62;;
20861;SDS011;10591;52.532;13.348;2023-03-22T14:50:07;4.62;;;2.80;;
20861;SDS011;10591;52.532;13.348;2023-03-22T14:52:36;5.75;;;2.72;;
20861;SDS011;10591;52.532;13.348;2023-03-22T14:55:08;3.50;;;2.60;;
20861;SDS011;10591;52.532;13.348;2023-03-22T14:57:46;4.97;;;3.00;;
20861;SDS011;10591;52.532;13.348;2023-03-22T15:00:15;4.65;;;2.95;;
20861;SDS011;10591;52.532;13.348;2023-03-22T15:02:47;6.00;;;3.20;;
20861;SDS011;10591;52.532;13.348;2023-03-22T15:05:19;4.85;;;2.67;;
20861;SDS011;10591;52.532;13.348;2023-03-22T15:07:52;3.45;;;2.70;;
20861;SDS011;10591;52.532;13.348;2023-03-22T15:10:26;4.15;;;2.60;;
20861;SDS011;10591;52.532;13.348;2023-03-22T15:12:57;4.12;;;2.75;;
20861;SDS011;10591;52.532;13.348;2023-03-22T15:15:29;4.03;;;2.87;;
20861;SDS011;10591;52.532;13.348;2023-03-22T15:18:01;2.67;;;2.33;;
20861;SDS011;10591;52.532;13.348;2023-03-22T15:20:33;3.27;;;2.70;;
20861;SDS011;10591;52.532;13.348;2023-03-22T15:25:46;2.42;;;2.22;;
20861;SDS011;10591;52.532;13.348;2023-03-22T15:28:20;3.37;;;2.67;;
20861;SDS011;10591;52.532;13.348;2023-03-22T15:30:52;3.55;;;2.62;;
20861;SDS011;10591;52.532;13.348;2023-03-22T15:33:29;4.72;;;2.60;;
20861;SDS011;10591;52.532;13.348;2023-03-22T15:36:02;4.20;;;2.70;;
20861;SDS011;10591;52.532;13.348;2023-03-22T15:38:38;3.62;;;2.70;;
20861;SDS011;10591;52.532;13.348;2023-03-22T15:41:18;6.47;;;3.33;;
20861;SDS011;10591;52.532;13.348;2023-03-22T15:43:58;3.12;;;2.62;;
20861;SDS011;10591;52.532;13.348;2023-03-22T15:46:45;3.27;;;2.75;;
20861;SDS011;10591;52.532;13.348;2023-03-22T15:49:16;4.00;;;2.92;;
20861;SDS011;10591;52.532;13.348;2023-03-22T15:51:48;4.42;;;2.87;;
20861;SDS011;10591;52.532;13.348;2023-03-22T15:54:21;3.42;;;2.80;;
20861;SDS011;10591;52.532;13.348;2023-03-22T15:57:08;4.45;;;2.87;;
20861;SDS011;10591;52.532;13.348;2023-03-22T15:59:49;4.17;;;3.22;;
20861;SDS011;10591;52.532;13.348;2023-03-22T16:02:23;3.98;;;3.12;;
20861;SDS011;10591;52.532;13.348;2023-03-22T16:04:54;3.40;;;2.75;;
20861;SDS011;10591;52.532;13.348;2023-03-22T16:07:27;4.05;;;3.45;;
20861;SDS011;10591;52.532;13.348;2023-03-22T16:09:58;4.17;;;3.08;;
20861;SDS011;10591;52.532;13.348;2023-03-22T16:12:28;5.12;;;3.50;;
20861;SDS011;10591;52.532;13.348;2023-03-22T16:14:59;3.60;;;3.25;;
20861;SDS011;10591;52.532;13.348;2023-03-22T16:17:29;3.60;;;2.90;;
20861;SDS011;10591;52.532;13.348;2023-03-22T16:20:00;3.45;;;2.72;;
20861;SDS011;10591;52.532;13.348;2023-03-22T16:22:30;6.33;;;2.72;;
20861;SDS011;10591;52.532;13.348;2023-03-22T16:25:00;4.12;;;2.85;;
20861;SDS011;10591;52.532;13.348;2023-03-22T16:27:29;2.85;;;2.65;;
20861;SDS011;10591;52.532;13.348;2023-03-22T16:29:59;4.30;;;2.60;;
20861;SDS011;10591;52.532;13.348;2023-03-22T16:32:29;4.35;;;2.77;;
20861;SDS011;10591;52.532;13.348;2023-03-22T16:34:59;4.05;;;2.30;;